Aérodrome :
LOGIN :

S'inscrire | Disclaimer

   EN    FR    IT 

 










Légende :    VFR   VFR Marginal   IFR   IFR Intensif   IFR Très Intensif
Visi : 
Plafond : 
>= 8 km
>= 3000ft
5 à 8 km
1000 à 3000 ft
1500m à 5 km
500 à 1000 ft
800 à 1500m
200 à 500 ft
< 800m
< 200 ft
Symboles :   Orages  Brouillard  Fortes neiges  Fortes précipitations  Vent > 20 kt
SIGMETs :   Divers  Orages  Givrage  Turbulence  Onde Orograph.  Cendres Volcan.






- Altitude de l'aérodrome : 245 ft


ETHS - Fassberg

DERNIER METAR :
  • 271120Z 22008KT 9999 SCT012 BKN020 04/01 Q1000 WHT BLU TEMPO WHT

METARs EXPIRÉS :
  • 271020Z 24008KT 9999 BKN012 BKN020 03/00 Q1001 GRN BLU TEMPO GRN
  • 270920Z 27008KT 9999 FEW009 BKN012 03/M00 Q1001 GRN

TAF TAF ETHS
Valide du 27 à 12h jusqu'au 27 à 21h UTC


271119Z 2712/2721 15003KT 9999 NSW FEW015 BKN040
TEMPO 2712/2714 22008KT 9999 NSW BKN016
TEMPO 2718/2721 30005KT 4000 -RASN BKN009



MET'MAP, la Météo Aéronautique d'un coup d'oeil ! - Copyright ORBIFLY Décembre 2007 - Disclaimer

ORBIFLY MET'MAP TEAM :

Programmation & Développement : Alexandra Zaïnal
Sur une idée originale de : Baudouin d'Aumeries
Assistance à la programmation : Marc-Olivier Méhu
Soutien technique & logistique : Manuel Goepfert

Contact : metmap@orbifly.com




SOURCES & CREDITS :

   NOAA